sensor_id;sensor_type;location;lat;lon;timestamp;temperature;humidity
6468;DHT22;3267;48.794;9.928;2023-09-12T04:02:23;20.60;68.10
6468;DHT22;3267;48.794;9.928;2023-09-12T04:04:50;20.50;67.50
6468;DHT22;3267;48.794;9.928;2023-09-12T04:07:17;20.60;65.40
6468;DHT22;3267;48.794;9.928;2023-09-12T04:09:43;20.60;67.60
6468;DHT22;3267;48.794;9.928;2023-09-12T04:12:08;20.60;67.20
6468;DHT22;3267;48.794;9.928;2023-09-12T04:14:35;20.80;67.80
6468;DHT22;3267;48.794;9.928;2023-09-12T04:17:00;20.80;67.90
6468;DHT22;3267;48.794;9.928;2023-09-12T04:19:26;21.00;67.80
6468;DHT22;3267;48.794;9.928;2023-09-12T04:21:52;21.00;67.80
6468;DHT22;3267;48.794;9.928;2023-09-12T04:24:17;21.10;67.90
6468;DHT22;3267;48.794;9.928;2023-09-12T04:26:43;21.10;67.90
6468;DHT22;3267;48.794;9.928;2023-09-12T04:29:12;21.90;69.60
6468;DHT22;3267;48.794;9.928;2023-09-12T04:31:41;21.00;68.00
6468;DHT22;3267;48.794;9.928;2023-09-12T04:34:06;21.10;68.30
6468;DHT22;3267;48.794;9.928;2023-09-12T04:36:32;21.00;68.90
6468;DHT22;3267;48.794;9.928;2023-09-12T04:38:58;20.90;69.00
6468;DHT22;3267;48.794;9.928;2023-09-12T04:41:23;20.80;69.00
6468;DHT22;3267;48.794;9.928;2023-09-12T04:43:49;20.90;68.90
6468;DHT22;3267;48.794;9.928;2023-09-12T04:46:15;20.80;67.70
6468;DHT22;3267;48.794;9.928;2023-09-12T04:48:41;20.80;69.20
6468;DHT22;3267;48.794;9.928;2023-09-12T04:51:06;20.80;68.50
6468;DHT22;3267;48.794;9.928;2023-09-12T04:53:32;20.80;68.70
6468;DHT22;3267;48.794;9.928;2023-09-12T04:56:02;20.70;69.00
6468;DHT22;3267;48.794;9.928;2023-09-12T04:58:27;20.70;69.70
6468;DHT22;3267;48.794;9.928;2023-09-12T05:00:54;20.70;70.10
6468;DHT22;3267;48.794;9.928;2023-09-12T05:03:21;20.60;70.90
6468;DHT22;3267;48.794;9.928;2023-09-12T05:05:47;20.60;71.20
6468;DHT22;3267;48.794;9.928;2023-09-12T05:08:13;20.60;68.70
6468;DHT22;3267;48.794;9.928;2023-09-12T05:10:39;20.50;70.10
6468;DHT22;3267;48.794;9.928;2023-09-12T05:13:05;20.50;71.00
6468;DHT22;3267;48.794;9.928;2023-09-12T05:15:31;20.50;68.80
6468;DHT22;3267;48.794;9.928;2023-09-12T05:17:56;20.50;68.60
6468;DHT22;3267;48.794;9.928;2023-09-12T05:20:22;20.50;69.90
6468;DHT22;3267;48.794;9.928;2023-09-12T05:22:48;20.50;70.60
6468;DHT22;3267;48.794;9.928;2023-09-12T05:25:13;20.60;69.70
6468;DHT22;3267;48.794;9.928;2023-09-12T05:27:39;20.60;69.10
6468;DHT22;3267;48.794;9.928;2023-09-12T05:30:05;20.60;67.90
6468;DHT22;3267;48.794;9.928;2023-09-12T05:32:31;20.60;70.00
6468;DHT22;3267;48.794;9.928;2023-09-12T05:34:56;20.70;70.40
6468;DHT22;3267;48.794;9.928;2023-09-12T05:37:22;20.70;69.80
6468;DHT22;3267;48.794;9.928;2023-09-12T05:39:48;20.70;71.00
6468;DHT22;3267;48.794;9.928;2023-09-12T05:42:13;20.70;70.20
6468;DHT22;3267;48.794;9.928;2023-09-12T05:44:41;20.70;70.90
6468;DHT22;3267;48.794;9.928;2023-09-12T05:47:07;20.70;70.50
6468;DHT22;3267;48.794;9.928;2023-09-12T05:49:33;20.90;71.20
6468;DHT22;3267;48.794;9.928;2023-09-12T05:51:59;20.80;70.10
6468;DHT22;3267;48.794;9.928;2023-09-12T05:54:25;20.80;71.70
6468;DHT22;3267;48.794;9.928;2023-09-12T05:56:51;20.80;71.90
6468;DHT22;3267;48.794;9.928;2023-09-12T05:59:18;20.80;72.00
6468;DHT22;3267;48.794;9.928;2023-09-12T06:01:44;21.90;73.90
6468;DHT22;3267;48.794;9.928;2023-09-12T06:04:10;20.80;71.70
6468;DHT22;3267;48.794;9.928;2023-09-12T06:06:36;20.90;71.70
6468;DHT22;3267;48.794;9.928;2023-09-12T06:09:01;20.90;72.70
6468;DHT22;3267;48.794;9.928;2023-09-12T06:11:29;20.90;72.60
6468;DHT22;3267;48.794;9.928;2023-09-12T06:13:54;20.90;72.60
6468;DHT22;3267;48.794;9.928;2023-09-12T06:16:20;21.00;72.70
6468;DHT22;3267;48.794;9.928;2023-09-12T06:18:46;21.20;72.30
6468;DHT22;3267;48.794;9.928;2023-09-12T06:21:11;21.10;73.00
6468;DHT22;3267;48.794;9.928;2023-09-12T06:23:37;21.30;72.50
6468;DHT22;3267;48.794;9.928;2023-09-12T06:26:02;21.30;73.40
6468;DHT22;3267;48.794;9.928;2023-09-12T06:28:30;21.40;73.20
6468;DHT22;3267;48.794;9.928;2023-09-12T06:30:56;21.50;73.10
6468;DHT22;3267;48.794;9.928;2023-09-12T06:33:23;21.60;73.20
6468;DHT22;3267;48.794;9.928;2023-09-12T06:35:52;21.70;73.20
6468;DHT22;3267;48.794;9.928;2023-09-12T06:38:22;21.80;73.20
6468;DHT22;3267;48.794;9.928;2023-09-12T06:40:48;21.80;73.30
6468;DHT22;3267;48.794;9.928;2023-09-12T06:43:14;21.90;73.20
6468;DHT22;3267;48.794;9.928;2023-09-12T06:45:43;22.00;73.20
6468;DHT22;3267;48.794;9.928;2023-09-12T06:48:09;22.20;73.40
6468;DHT22;3267;48.794;9.928;2023-09-12T06:50:35;22.30;72.10
6468;DHT22;3267;48.794;9.928;2023-09-12T06:53:04;22.30;73.20
6468;DHT22;3267;48.794;9.928;2023-09-12T06:55:29;22.50;73.50
6468;DHT22;3267;48.794;9.928;2023-09-12T06:57:55;22.70;73.70
6468;DHT22;3267;48.794;9.928;2023-09-12T07:00:21;22.70;74.50
6468;DHT22;3267;48.794;9.928;2023-09-12T07:02:46;22.80;73.00
6468;DHT22;3267;48.794;9.928;2023-09-12T07:05:12;22.80;72.60
6468;DHT22;3267;48.794;9.928;2023-09-12T07:07:37;22.80;72.30
6468;DHT22;3267;48.794;9.928;2023-09-12T07:10:04;22.90;71.90
6468;DHT22;3267;48.794;9.928;2023-09-12T07:12:31;23.00;71.80
6468;DHT22;3267;48.794;9.928;2023-09-12T07:14:58;23.00;71.60
6468;DHT22;3267;48.794;9.928;2023-09-12T07:17:24;23.40;71.80
6468;DHT22;3267;48.794;9.928;2023-09-12T07:19:52;23.10;71.30
6468;DHT22;3267;48.794;9.928;2023-09-12T07:22:18;23.20;71.30
6468;DHT22;3267;48.794;9.928;2023-09-12T07:24:44;23.10;71.50
6468;DHT22;3267;48.794;9.928;2023-09-12T07:27:09;23.30;71.40
6468;DHT22;3267;48.794;9.928;2023-09-12T07:29:35;23.30;71.20
6468;DHT22;3267;48.794;9.928;2023-09-12T07:32:00;23.70;71.30
6468;DHT22;3267;48.794;9.928;2023-09-12T07:34:26;23.50;70.90
6468;DHT22;3267;48.794;9.928;2023-09-12T07:36:52;23.60;70.80
6468;DHT22;3267;48.794;9.928;2023-09-12T07:39:19;23.70;70.70
6468;DHT22;3267;48.794;9.928;2023-09-12T07:41:44;23.70;70.70
6468;DHT22;3267;48.794;9.928;2023-09-12T07:44:10;23.80;71.00
6468;DHT22;3267;48.794;9.928;2023-09-12T07:46:37;23.80;70.90
6468;DHT22;3267;48.794;9.928;2023-09-12T07:49:03;23.80;72.10
6468;DHT22;3267;48.794;9.928;2023-09-12T07:51:29;23.90;70.50
6468;DHT22;3267;48.794;9.928;2023-09-12T07:53:54;23.90;71.70
6468;DHT22;3267;48.794;9.928;2023-09-12T07:56:20;23.90;71.90
6468;DHT22;3267;48.794;9.928;2023-09-12T07:58:45;24.10;70.20
6468;DHT22;3267;48.794;9.928;2023-09-12T08:01:11;24.10;72.10
6468;DHT22;3267;48.794;9.928;2023-09-12T08:03:38;24.30;69.70
6468;DHT22;3267;48.794;9.928;2023-09-12T08:06:05;24.30;71.60
6468;DHT22;3267;48.794;9.928;2023-09-12T08:08:31;24.30;71.30
6468;DHT22;3267;48.794;9.928;2023-09-12T08:10:57;24.50;71.50
6468;DHT22;3267;48.794;9.928;2023-09-12T08:13:25;24.50;71.30
6468;DHT22;3267;48.794;9.928;2023-09-12T08:15:52;24.60;71.20
6468;DHT22;3267;48.794;9.928;2023-09-12T08:18:17;24.70;70.90
6468;DHT22;3267;48.794;9.928;2023-09-12T08:20:43;24.90;71.10
6468;DHT22;3267;48.794;9.928;2023-09-12T08:23:09;24.90;71.10
6468;DHT22;3267;48.794;9.928;2023-09-12T08:25:35;25.00;71.00
6468;DHT22;3267;48.794;9.928;2023-09-12T08:28:00;25.10;70.70
6468;DHT22;3267;48.794;9.928;2023-09-12T08:30:27;25.10;71.30
6468;DHT22;3267;48.794;9.928;2023-09-12T08:32:56;25.10;71.10
6468;DHT22;3267;48.794;9.928;2023-09-12T08:35:21;25.10;71.10
6468;DHT22;3267;48.794;9.928;2023-09-12T08:37:47;25.10;71.10
6468;DHT22;3267;48.794;9.928;2023-09-12T08:40:13;25.00;70.90
6468;DHT22;3267;48.794;9.928;2023-09-12T08:42:42;25.20;70.90
6468;DHT22;3267;48.794;9.928;2023-09-12T08:45:12;25.30;70.80
6468;DHT22;3267;48.794;9.928;2023-09-12T08:47:44;25.40;71.30
6468;DHT22;3267;48.794;9.928;2023-09-12T08:50:12;25.40;71.00
6468;DHT22;3267;48.794;9.928;2023-09-12T08:52:42;25.60;70.70
6468;DHT22;3267;48.794;9.928;2023-09-12T08:55:09;25.70;70.50
6468;DHT22;3267;48.794;9.928;2023-09-12T08:57:37;25.70;70.50
6468;DHT22;3267;48.794;9.928;2023-09-12T09:00:05;25.80;71.00
6468;DHT22;3267;48.794;9.928;2023-09-12T09:02:40;25.90;71.30
6468;DHT22;3267;48.794;9.928;2023-09-12T09:05:07;26.00;71.90
6468;DHT22;3267;48.794;9.928;2023-09-12T09:07:35;26.00;71.80
6468;DHT22;3267;48.794;9.928;2023-09-12T09:10:03;26.10;71.80
6468;DHT22;3267;48.794;9.928;2023-09-12T09:12:31;26.20;71.80
6468;DHT22;3267;48.794;9.928;2023-09-12T09:14:56;26.20;71.50
6468;DHT22;3267;48.794;9.928;2023-09-12T09:17:23;26.30;71.40
6468;DHT22;3267;48.794;9.928;2023-09-12T09:19:48;26.30;71.40
6468;DHT22;3267;48.794;9.928;2023-09-12T09:22:14;26.40;71.70
6468;DHT22;3267;48.794;9.928;2023-09-12T09:24:40;26.50;71.60
6468;DHT22;3267;48.794;9.928;2023-09-12T09:27:05;26.60;72.30
6468;DHT22;3267;48.794;9.928;2023-09-12T09:29:31;26.60;71.30
6468;DHT22;3267;48.794;9.928;2023-09-12T09:31:59;26.60;70.80
6468;DHT22;3267;48.794;9.928;2023-09-12T09:34:25;26.80;70.80
6468;DHT22;3267;48.794;9.928;2023-09-12T09:36:55;26.90;71.20
6468;DHT22;3267;48.794;9.928;2023-09-12T09:39:23;26.90;71.20
6468;DHT22;3267;48.794;9.928;2023-09-12T09:41:56;27.50;71.60
6468;DHT22;3267;48.794;9.928;2023-09-12T09:44:24;27.00;71.00
6468;DHT22;3267;48.794;9.928;2023-09-12T09:46:55;27.00;70.90
6468;DHT22;3267;48.794;9.928;2023-09-12T09:49:21;27.10;70.70
6468;DHT22;3267;48.794;9.928;2023-09-12T09:51:47;27.30;70.80
6468;DHT22;3267;48.794;9.928;2023-09-12T09:54:14;27.20;70.70
6468;DHT22;3267;48.794;9.928;2023-09-12T09:56:52;27.20;70.70
6468;DHT22;3267;48.794;9.928;2023-09-12T09:59:20;27.30;71.00
6468;DHT22;3267;48.794;9.928;2023-09-12T10:01:48;29.60;72.70
6468;DHT22;3267;48.794;9.928;2023-09-12T10:04:15;27.50;71.10
6468;DHT22;3267;48.794;9.928;2023-09-12T10:06:44;27.50;70.60
6468;DHT22;3267;48.794;9.928;2023-09-12T10:09:11;27.40;70.50
6468;DHT22;3267;48.794;9.928;2023-09-12T10:11:39;27.60;70.60
6468;DHT22;3267;48.794;9.928;2023-09-12T10:14:05;27.70;70.40
6468;DHT22;3267;48.794;9.928;2023-09-12T10:16:47;28.10;70.50
6468;DHT22;3267;48.794;9.928;2023-09-12T10:19:15;27.90;70.50
6468;DHT22;3267;48.794;9.928;2023-09-12T10:21:49;28.10;70.40
6468;DHT22;3267;48.794;9.928;2023-09-12T10:24:16;28.00;70.00
6468;DHT22;3267;48.794;9.928;2023-09-12T10:26:45;28.20;69.70
6468;DHT22;3267;48.794;9.928;2023-09-12T10:29:15;29.60;70.80
6468;DHT22;3267;48.794;9.928;2023-09-12T10:31:41;28.20;69.50
6468;DHT22;3267;48.794;9.928;2023-09-12T10:34:07;28.40;69.40
6468;DHT22;3267;48.794;9.928;2023-09-12T10:36:42;28.50;69.50
6468;DHT22;3267;48.794;9.928;2023-09-12T10:39:10;28.60;69.30
6468;DHT22;3267;48.794;9.928;2023-09-12T10:41:40;29.50;69.70
6468;DHT22;3267;48.794;9.928;2023-09-12T10:44:10;30.10;70.20
6468;DHT22;3267;48.794;9.928;2023-09-12T10:46:38;28.70;68.90
6468;DHT22;3267;48.794;9.928;2023-09-12T10:49:08;28.70;68.60
6468;DHT22;3267;48.794;9.928;2023-09-12T10:51:39;28.80;68.60
6468;DHT22;3267;48.794;9.928;2023-09-12T10:54:06;28.80;68.20
6468;DHT22;3267;48.794;9.928;2023-09-12T10:56:33;28.80;68.10
6468;DHT22;3267;48.794;9.928;2023-09-12T11:01:31;28.90;68.00
6468;DHT22;3267;48.794;9.928;2023-09-12T11:03:57;29.70;68.40
6468;DHT22;3267;48.794;9.928;2023-09-12T11:06:28;29.10;67.70
6468;DHT22;3267;48.794;9.928;2023-09-12T11:11:38;29.20;67.40
6468;DHT22;3267;48.794;9.928;2023-09-12T11:14:05;29.10;67.40
6468;DHT22;3267;48.794;9.928;2023-09-12T11:16:32;29.40;67.80
6468;DHT22;3267;48.794;9.928;2023-09-12T11:19:15;29.40;67.40
6468;DHT22;3267;48.794;9.928;2023-09-12T11:21:47;29.50;67.10
6468;DHT22;3267;48.794;9.928;2023-09-12T11:24:14;29.50;67.20
6468;DHT22;3267;48.794;9.928;2023-09-12T11:29:19;29.70;66.50
6468;DHT22;3267;48.794;9.928;2023-09-12T11:31:55;31.10;67.60
6468;DHT22;3267;48.794;9.928;2023-09-12T11:34:25;29.70;66.20
6468;DHT22;3267;48.794;9.928;2023-09-12T11:36:58;29.80;65.70
6468;DHT22;3267;48.794;9.928;2023-09-12T11:39:29;29.80;65.40
6468;DHT22;3267;48.794;9.928;2023-09-12T11:41:57;30.00;65.30
6468;DHT22;3267;48.794;9.928;2023-09-12T11:44:23;29.90;65.10
6468;DHT22;3267;48.794;9.928;2023-09-12T11:46:49;29.90;65.40
6468;DHT22;3267;48.794;9.928;2023-09-12T11:49:16;30.00;64.60
6468;DHT22;3267;48.794;9.928;2023-09-12T11:51:50;30.00;65.10
6468;DHT22;3267;48.794;9.928;2023-09-12T11:54:18;30.10;64.20
6468;DHT22;3267;48.794;9.928;2023-09-12T11:56:46;30.20;64.20
6468;DHT22;3267;48.794;9.928;2023-09-12T11:59:13;30.20;64.40
6468;DHT22;3267;48.794;9.928;2023-09-12T12:01:38;30.20;63.30
6468;DHT22;3267;48.794;9.928;2023-09-12T12:04:04;30.20;63.10
6468;DHT22;3267;48.794;9.928;2023-09-12T12:06:32;30.30;62.60
6468;DHT22;3267;48.794;9.928;2023-09-12T12:08:58;30.30;63.20
6468;DHT22;3267;48.794;9.928;2023-09-12T12:11:28;30.60;62.80
6468;DHT22;3267;48.794;9.928;2023-09-12T12:13:53;30.30;61.80
6468;DHT22;3267;48.794;9.928;2023-09-12T12:16:19;30.40;62.80
6468;DHT22;3267;48.794;9.928;2023-09-12T12:18:45;30.70;62.20
6468;DHT22;3267;48.794;9.928;2023-09-12T12:21:10;30.60;62.20
6468;DHT22;3267;48.794;9.928;2023-09-12T12:23:36;30.60;62.80
6468;DHT22;3267;48.794;9.928;2023-09-12T12:26:09;30.70;62.00
6468;DHT22;3267;48.794;9.928;2023-09-12T12:28:35;30.80;61.20
6468;DHT22;3267;48.794;9.928;2023-09-12T12:31:01;30.80;60.40
6468;DHT22;3267;48.794;9.928;2023-09-12T12:33:27;30.80;60.60
6468;DHT22;3267;48.794;9.928;2023-09-12T12:36:20;30.90;60.80
6468;DHT22;3267;48.794;9.928;2023-09-12T12:38:47;30.90;61.20
6468;DHT22;3267;48.794;9.928;2023-09-12T12:41:15;31.00;60.10
6468;DHT22;3267;48.794;9.928;2023-09-12T12:43:42;31.10;60.00
6468;DHT22;3267;48.794;9.928;2023-09-12T12:46:11;32.30;60.80
6468;DHT22;3267;48.794;9.928;2023-09-12T12:48:38;31.20;60.40
6468;DHT22;3267;48.794;9.928;2023-09-12T12:53:43;31.70;60.60
6468;DHT22;3267;48.794;9.928;2023-09-12T12:56:15;31.40;59.80
6468;DHT22;3267;48.794;9.928;2023-09-12T12:58:50;31.50;59.50
6468;DHT22;3267;48.794;9.928;2023-09-12T13:01:16;31.50;60.20
6468;DHT22;3267;48.794;9.928;2023-09-12T13:03:42;31.70;60.90
6468;DHT22;3267;48.794;9.928;2023-09-12T13:06:08;31.70;60.50
6468;DHT22;3267;48.794;9.928;2023-09-12T13:08:42;31.80;61.10
6468;DHT22;3267;48.794;9.928;2023-09-12T13:11:09;32.00;61.00
6468;DHT22;3267;48.794;9.928;2023-09-12T13:13:35;32.00;60.80
6468;DHT22;3267;48.794;9.928;2023-09-12T13:16:05;32.20;60.60
6468;DHT22;3267;48.794;9.928;2023-09-12T13:18:34;32.30;60.00
6468;DHT22;3267;48.794;9.928;2023-09-12T13:21:00;32.50;60.20
6468;DHT22;3267;48.794;9.928;2023-09-12T13:23:27;32.70;59.40
6468;DHT22;3267;48.794;9.928;2023-09-12T13:25:53;33.00;58.80
6468;DHT22;3267;48.794;9.928;2023-09-12T13:28:18;33.30;59.00
6468;DHT22;3267;48.794;9.928;2023-09-12T13:30:44;33.50;58.20
6468;DHT22;3267;48.794;9.928;2023-09-12T13:33:11;33.80;58.80
6468;DHT22;3267;48.794;9.928;2023-09-12T13:35:37;34.20;58.00
6468;DHT22;3267;48.794;9.928;2023-09-12T13:38:03;34.50;57.70
6468;DHT22;3267;48.794;9.928;2023-09-12T13:40:36;34.70;57.50
6468;DHT22;3267;48.794;9.928;2023-09-12T13:43:04;35.10;57.80
6468;DHT22;3267;48.794;9.928;2023-09-12T13:45:29;35.30;56.10
6468;DHT22;3267;48.794;9.928;2023-09-12T13:47:55;35.50;56.10
6468;DHT22;3267;48.794;9.928;2023-09-12T13:50:20;35.70;55.90
6468;DHT22;3267;48.794;9.928;2023-09-12T13:52:46;35.90;56.20
6468;DHT22;3267;48.794;9.928;2023-09-12T13:55:12;36.10;55.70
6468;DHT22;3267;48.794;9.928;2023-09-12T13:57:41;36.40;56.20
6468;DHT22;3267;48.794;9.928;2023-09-12T14:00:07;36.70;56.70
6468;DHT22;3267;48.794;9.928;2023-09-12T14:02:33;36.90;55.40
6468;DHT22;3267;48.794;9.928;2023-09-12T14:04:59;37.00;55.30
6468;DHT22;3267;48.794;9.928;2023-09-12T14:07:24;37.20;55.50
6468;DHT22;3267;48.794;9.928;2023-09-12T14:09:50;37.40;55.50
6468;DHT22;3267;48.794;9.928;2023-09-12T14:12:17;37.40;54.90
6468;DHT22;3267;48.794;9.928;2023-09-12T14:14:43;37.20;54.70
6468;DHT22;3267;48.794;9.928;2023-09-12T14:17:09;37.00;55.60
6468;DHT22;3267;48.794;9.928;2023-09-12T14:19:35;36.50;55.50
6468;DHT22;3267;48.794;9.928;2023-09-12T14:22:01;36.20;56.10
6468;DHT22;3267;48.794;9.928;2023-09-12T14:24:26;35.80;56.80
6468;DHT22;3267;48.794;9.928;2023-09-12T14:26:52;35.60;57.50
6468;DHT22;3267;48.794;9.928;2023-09-12T14:29:17;35.60;58.10
6468;DHT22;3267;48.794;9.928;2023-09-12T14:31:43;35.50;57.60
6468;DHT22;3267;48.794;9.928;2023-09-12T14:34:18;35.60;57.70
6468;DHT22;3267;48.794;9.928;2023-09-12T14:36:44;35.70;58.10
6468;DHT22;3267;48.794;9.928;2023-09-12T14:39:11;35.70;58.10
6468;DHT22;3267;48.794;9.928;2023-09-12T14:41:37;35.80;58.10
6468;DHT22;3267;48.794;9.928;2023-09-12T14:44:03;35.70;58.20
6468;DHT22;3267;48.794;9.928;2023-09-12T14:46:30;35.70;58.60
6468;DHT22;3267;48.794;9.928;2023-09-12T14:48:56;35.60;58.60
6468;DHT22;3267;48.794;9.928;2023-09-12T14:51:21;35.50;58.80
6468;DHT22;3267;48.794;9.928;2023-09-12T14:53:47;35.30;59.10
6468;DHT22;3267;48.794;9.928;2023-09-12T14:56:13;35.00;59.50
6468;DHT22;3267;48.794;9.928;2023-09-12T14:58:38;34.70;60.10
6468;DHT22;3267;48.794;9.928;2023-09-12T15:01:06;34.50;60.70
6468;DHT22;3267;48.794;9.928;2023-09-12T15:03:31;34.30;61.50
6468;DHT22;3267;48.794;9.928;2023-09-12T15:06:04;34.10;62.00
6468;DHT22;3267;48.794;9.928;2023-09-12T15:08:30;33.80;62.50
6468;DHT22;3267;48.794;9.928;2023-09-12T15:10:56;33.70;62.90
6468;DHT22;3267;48.794;9.928;2023-09-12T15:13:21;33.40;63.40
6468;DHT22;3267;48.794;9.928;2023-09-12T15:15:47;33.30;63.90
6468;DHT22;3267;48.794;9.928;2023-09-12T15:18:12;33.10;64.30
6468;DHT22;3267;48.794;9.928;2023-09-12T15:20:38;33.00;64.80
6468;DHT22;3267;48.794;9.928;2023-09-12T15:23:05;32.90;65.10
6468;DHT22;3267;48.794;9.928;2023-09-12T15:25:30;32.90;65.10
6468;DHT22;3267;48.794;9.928;2023-09-12T15:27:58;32.80;65.00
6468;DHT22;3267;48.794;9.928;2023-09-12T15:30:24;32.70;64.80
6468;DHT22;3267;48.794;9.928;2023-09-12T15:32:49;32.80;64.60
6468;DHT22;3267;48.794;9.928;2023-09-12T15:35:15;32.70;64.40
6468;DHT22;3267;48.794;9.928;2023-09-12T15:37:41;32.60;64.50
6468;DHT22;3267;48.794;9.928;2023-09-12T15:40:07;32.50;64.20
6468;DHT22;3267;48.794;9.928;2023-09-12T15:42:33;32.30;64.60
6468;DHT22;3267;48.794;9.928;2023-09-12T15:44:59;32.10;64.80
6468;DHT22;3267;48.794;9.928;2023-09-12T15:47:24;31.90;65.30
6468;DHT22;3267;48.794;9.928;2023-09-12T15:49:50;31.70;65.40
6468;DHT22;3267;48.794;9.928;2023-09-12T15:52:15;31.60;65.90
6468;DHT22;3267;48.794;9.928;2023-09-12T15:54:41;31.50;66.10
6468;DHT22;3267;48.794;9.928;2023-09-12T15:57:07;31.40;66.60
6468;DHT22;3267;48.794;9.928;2023-09-12T15:59:32;31.40;67.00
6468;DHT22;3267;48.794;9.928;2023-09-12T16:01:58;31.40;66.40
6468;DHT22;3267;48.794;9.928;2023-09-12T16:04:24;31.20;66.40
6468;DHT22;3267;48.794;9.928;2023-09-12T16:06:52;31.20;66.70
6468;DHT22;3267;48.794;9.928;2023-09-12T16:09:17;31.20;66.70
6468;DHT22;3267;48.794;9.928;2023-09-12T16:11:43;31.00;66.60
6468;DHT22;3267;48.794;9.928;2023-09-12T16:14:09;31.00;67.10
6468;DHT22;3267;48.794;9.928;2023-09-12T16:16:35;30.90;66.80
6468;DHT22;3267;48.794;9.928;2023-09-12T16:19:01;30.90;66.90
6468;DHT22;3267;48.794;9.928;2023-09-12T16:21:28;30.80;66.90
6468;DHT22;3267;48.794;9.928;2023-09-12T16:23:54;30.70;67.10
6468;DHT22;3267;48.794;9.928;2023-09-12T16:26:20;30.80;67.40
6468;DHT22;3267;48.794;9.928;2023-09-12T16:28:46;30.70;67.40
6468;DHT22;3267;48.794;9.928;2023-09-12T16:31:11;30.70;67.20
6468;DHT22;3267;48.794;9.928;2023-09-12T16:33:37;30.60;67.00
6468;DHT22;3267;48.794;9.928;2023-09-12T16:36:02;30.60;66.70
6468;DHT22;3267;48.794;9.928;2023-09-12T16:38:28;30.60;66.90
6468;DHT22;3267;48.794;9.928;2023-09-12T16:40:54;30.40;66.70
6468;DHT22;3267;48.794;9.928;2023-09-12T16:43:20;32.30;68.70
6468;DHT22;3267;48.794;9.928;2023-09-12T16:45:45;30.40;66.90
6468;DHT22;3267;48.794;9.928;2023-09-12T16:48:11;30.50;67.10
6468;DHT22;3267;48.794;9.928;2023-09-12T16:50:36;30.40;66.60
6468;DHT22;3267;48.794;9.928;2023-09-12T16:53:02;32.40;67.90
6468;DHT22;3267;48.794;9.928;2023-09-12T16:55:30;30.40;66.00
6468;DHT22;3267;48.794;9.928;2023-09-12T16:57:55;30.20;66.10
6468;DHT22;3267;48.794;9.928;2023-09-12T17:00:21;30.20;66.10
6468;DHT22;3267;48.794;9.928;2023-09-12T17:02:47;30.20;66.20
6468;DHT22;3267;48.794;9.928;2023-09-12T17:05:13;30.10;66.40
6468;DHT22;3267;48.794;9.928;2023-09-12T17:07:38;30.00;66.10
6468;DHT22;3267;48.794;9.928;2023-09-12T17:10:04;30.10;65.90
6468;DHT22;3267;48.794;9.928;2023-09-12T17:12:30;30.00;65.80
6468;DHT22;3267;48.794;9.928;2023-09-12T17:14:55;31.20;67.00
6468;DHT22;3267;48.794;9.928;2023-09-12T17:17:21;30.10;65.80
6468;DHT22;3267;48.794;9.928;2023-09-12T17:19:47;29.80;64.90
6468;DHT22;3267;48.794;9.928;2023-09-12T17:22:13;29.80;65.70
6468;DHT22;3267;48.794;9.928;2023-09-12T17:24:38;31.60;67.40
6468;DHT22;3267;48.794;9.928;2023-09-12T17:27:04;29.50;65.40
6468;DHT22;3267;48.794;9.928;2023-09-12T17:29:30;29.50;65.50
6468;DHT22;3267;48.794;9.928;2023-09-12T17:31:56;29.50;65.90
6468;DHT22;3267;48.794;9.928;2023-09-12T17:34:44;31.00;66.10
6468;DHT22;3267;48.794;9.928;2023-09-12T17:37:11;29.40;66.10
6468;DHT22;3267;48.794;9.928;2023-09-12T17:39:37;29.50;65.60
6468;DHT22;3267;48.794;9.928;2023-09-12T17:42:04;29.30;65.80
6468;DHT22;3267;48.794;9.928;2023-09-12T17:44:30;29.30;65.20
6468;DHT22;3267;48.794;9.928;2023-09-12T17:46:56;29.10;65.30
6468;DHT22;3267;48.794;9.928;2023-09-12T17:49:21;29.10;64.40
6468;DHT22;3267;48.794;9.928;2023-09-12T17:51:47;29.00;65.10
6468;DHT22;3267;48.794;9.928;2023-09-12T17:54:13;29.00;65.00
6468;DHT22;3267;48.794;9.928;2023-09-12T17:56:39;28.90;65.50
6468;DHT22;3267;48.794;9.928;2023-09-12T17:59:06;29.40;66.00
6468;DHT22;3267;48.794;9.928;2023-09-12T18:01:31;29.10;66.30
6468;DHT22;3267;48.794;9.928;2023-09-12T18:03:57;30.80;67.10
6468;DHT22;3267;48.794;9.928;2023-09-12T18:06:23;28.80;65.70
6468;DHT22;3267;48.794;9.928;2023-09-12T18:08:49;28.70;66.00
6468;DHT22;3267;48.794;9.928;2023-09-12T18:11:15;28.70;66.00
6468;DHT22;3267;48.794;9.928;2023-09-12T18:13:41;28.80;66.20
6468;DHT22;3267;48.794;9.928;2023-09-12T18:16:07;28.50;66.10
6468;DHT22;3267;48.794;9.928;2023-09-12T18:18:32;28.50;66.30
6468;DHT22;3267;48.794;9.928;2023-09-12T18:20:58;28.60;66.40
6468;DHT22;3267;48.794;9.928;2023-09-12T18:23:24;28.50;66.90
6468;DHT22;3267;48.794;9.928;2023-09-12T18:25:50;28.30;66.90
6468;DHT22;3267;48.794;9.928;2023-09-12T18:28:36;28.50;67.20
6468;DHT22;3267;48.794;9.928;2023-09-12T18:31:02;28.50;67.20
6468;DHT22;3267;48.794;9.928;2023-09-12T18:33:28;28.40;66.70
6468;DHT22;3267;48.794;9.928;2023-09-12T18:35:53;28.30;66.90
6468;DHT22;3267;48.794;9.928;2023-09-12T18:38:21;28.30;66.70
6468;DHT22;3267;48.794;9.928;2023-09-12T18:40:46;28.20;67.00
6468;DHT22;3267;48.794;9.928;2023-09-12T18:43:12;28.40;67.40
6468;DHT22;3267;48.794;9.928;2023-09-12T18:45:38;28.20;67.30
6468;DHT22;3267;48.794;9.928;2023-09-12T18:48:03;28.20;67.30
6468;DHT22;3267;48.794;9.928;2023-09-12T18:50:29;28.10;67.30
6468;DHT22;3267;48.794;9.928;2023-09-12T18:52:55;28.00;67.20
6468;DHT22;3267;48.794;9.928;2023-09-12T18:55:22;27.90;67.30
6468;DHT22;3267;48.794;9.928;2023-09-12T18:57:48;27.90;67.40
6468;DHT22;3267;48.794;9.928;2023-09-12T19:00:14;27.90;67.40
6468;DHT22;3267;48.794;9.928;2023-09-12T19:02:42;27.90;67.90
6468;DHT22;3267;48.794;9.928;2023-09-12T19:05:08;27.70;66.90
6468;DHT22;3267;48.794;9.928;2023-09-12T19:07:33;27.70;67.20
6468;DHT22;3267;48.794;9.928;2023-09-12T19:10:00;27.70;67.20
6468;DHT22;3267;48.794;9.928;2023-09-12T19:12:25;27.70;67.60
6468;DHT22;3267;48.794;9.928;2023-09-12T19:14:51;27.60;66.70
6468;DHT22;3267;48.794;9.928;2023-09-12T19:17:17;27.50;66.70
6468;DHT22;3267;48.794;9.928;2023-09-12T19:19:42;27.40;66.40
6468;DHT22;3267;48.794;9.928;2023-09-12T19:22:08;27.30;66.20
6468;DHT22;3267;48.794;9.928;2023-09-12T19:24:34;27.30;66.30
6468;DHT22;3267;48.794;9.928;2023-09-12T19:26:59;27.20;66.30
6468;DHT22;3267;48.794;9.928;2023-09-12T19:29:25;27.10;66.40
6468;DHT22;3267;48.794;9.928;2023-09-12T19:31:51;27.00;66.50
6468;DHT22;3267;48.794;9.928;2023-09-12T19:34:17;27.10;67.20
6468;DHT22;3267;48.794;9.928;2023-09-12T19:36:42;27.00;66.20
6468;DHT22;3267;48.794;9.928;2023-09-12T19:39:08;26.80;66.20
6468;DHT22;3267;48.794;9.928;2023-09-12T19:41:34;27.10;66.80
6468;DHT22;3267;48.794;9.928;2023-09-12T19:43:59;26.80;66.20
6468;DHT22;3267;48.794;9.928;2023-09-12T19:46:26;26.80;66.90
6468;DHT22;3267;48.794;9.928;2023-09-12T19:48:52;26.80;66.60
6468;DHT22;3267;48.794;9.928;2023-09-12T19:51:18;26.70;66.00
6468;DHT22;3267;48.794;9.928;2023-09-12T19:53:43;26.70;66.10
6468;DHT22;3267;48.794;9.928;2023-09-12T19:56:09;26.70;66.30
6468;DHT22;3267;48.794;9.928;2023-09-12T19:58:35;26.70;65.80
6468;DHT22;3267;48.794;9.928;2023-09-12T20:01:02;26.60;66.00
6468;DHT22;3267;48.794;9.928;2023-09-12T20:03:35;26.60;65.80
6468;DHT22;3267;48.794;9.928;2023-09-12T20:06:00;26.50;65.30
6468;DHT22;3267;48.794;9.928;2023-09-12T20:08:26;26.40;65.00
6468;DHT22;3267;48.794;9.928;2023-09-12T20:10:52;26.80;65.20